Time;durP1;ratioP1;P1;durP2;ratioP2;P2;SDS_P1;SDS_P2;PMS_P1;PMS_P2;Temp;Humidity;BMP_temperature;BMP_pressure;BME280_temperature;BME280_humidity;BME280_pressure;Samples;Min_cycle;Max_cycle;Signal;HPM_P1;HPM_P2
2023/09/14 00:01:47;;;;;;;11.43;10.90;;;20.50;32.20;;;;;;5034079;28;20169;-77
2023/09/14 00:04:12;;;;;;;11.63;11.03;;;20.40;32.70;;;;;;5034440;28;20214;-77
2023/09/14 00:06:38;;;;;;;10.73;10.10;;;20.30;33.30;;;;;;5033867;28;20299;-77
2023/09/14 00:09:03;;;;;;;10.97;10.47;;;20.30;33.50;;;;;;5034244;28;20204;-77
2023/09/14 00:11:29;;;;;;;11.40;10.67;;;20.30;33.10;;;;;;5032406;28;20303;-77
2023/09/14 00:13:55;;;;;;;11.90;11.20;;;20.40;32.80;;;;;;5034531;28;20644;-77
2023/09/14 00:16:20;;;;;;;11.70;11.00;;;20.40;32.70;;;;;;5034138;28;20583;-77
2023/09/14 00:18:46;;;;;;;11.13;10.50;;;20.40;32.90;;;;;;5034043;28;20173;-77
2023/09/14 00:21:11;;;;;;;11.10;10.33;;;20.40;32.70;;;;;;5033612;28;20546;-77
2023/09/14 00:23:37;;;;;;;11.53;10.73;;;20.40;33.00;;;;;;5035180;28;20172;-77
2023/09/14 00:26:02;;;;;;;11.53;10.80;;;20.30;32.90;;;;;;5033526;28;20268;-77
2023/09/14 00:28:28;;;;;;;11.40;10.80;;;20.30;33.20;;;;;;5050163;28;20187;-77
2023/09/14 00:30:54;;;;;;;11.50;10.90;;;20.30;33.70;;;;;;5033664;28;20200;-77
2023/09/14 00:33:21;;;;;;;11.20;10.60;;;20.20;33.70;;;;;;5034095;28;20490;-77
2023/09/14 00:35:47;;;;;;;11.43;10.73;;;20.20;33.30;;;;;;5033923;28;20173;-77
2023/09/14 00:38:13;;;;;;;11.63;11.00;;;20.30;33.40;;;;;;5033937;28;20407;-77
2023/09/14 00:40:38;;;;;;;11.47;10.77;;;20.30;33.40;;;;;;5033402;28;20242;-77
2023/09/14 00:43:04;;;;;;;11.80;11.10;;;20.30;33.40;;;;;;5034015;28;20169;-76
2023/09/14 00:45:32;;;;;;;11.80;11.20;;;20.30;33.20;;;;;;5033608;28;20268;-77
2023/09/14 00:47:59;;;;;;;11.73;11.00;;;20.30;32.90;;;;;;5033683;28;20188;-77
2023/09/14 00:50:26;;;;;;;12.80;12.10;;;20.20;33.40;;;;;;5032682;28;20451;-77
2023/09/14 00:52:58;;;;;;;11.87;11.27;;;20.20;33.30;;;;;;5033583;28;20412;-77
2023/09/14 00:55:27;;;;;;;12.60;11.80;;;20.10;33.30;;;;;;5048831;28;20465;-77
2023/09/14 00:57:53;;;;;;;12.00;11.30;;;20.10;34.20;;;;;;5033644;28;20408;-77
2023/09/14 01:00:19;;;;;;;13.00;12.20;;;20.00;33.70;;;;;;5033125;28;20431;-77
2023/09/14 01:02:45;;;;;;;12.60;11.90;;;20.00;34.30;;;;;;5033734;28;20491;-77
2023/09/14 01:05:15;;;;;;;13.40;12.60;;;19.90;34.40;;;;;;5033367;28;20499;-77
2023/09/14 01:07:41;;;;;;;11.40;10.80;;;20.00;34.20;;;;;;5034452;28;20177;-77
2023/09/14 01:10:09;;;;;;;12.97;12.17;;;20.00;34.20;;;;;;5034555;28;20435;-77
2023/09/14 01:12:34;;;;;;;12.90;12.10;;;20.00;34.30;;;;;;5049553;28;20183;-77
2023/09/14 01:15:25;;;;;;;13.20;12.40;;;20.00;34.40;;;;;;5033409;28;20419;-77
2023/09/14 01:18:14;;;;;;;12.40;11.77;;;19.90;34.50;;;;;;5033561;28;20275;-77
2023/09/14 01:21:01;;;;;;;13.43;12.73;;;19.90;34.60;;;;;;5032377;28;20427;-77
2023/09/14 01:23:59;;;;;;;13.50;12.80;;;19.90;34.60;;;;;;5032686;28;20446;-77
2023/09/14 01:26:27;;;;;;;13.67;12.87;;;19.80;34.70;;;;;;4998887;28;20419;-77
2023/09/14 01:28:53;;;;;;;13.30;12.60;;;19.80;34.90;;;;;;5033120;28;20946;-77
2023/09/14 01:31:19;;;;;;;13.67;12.73;;;19.80;35.00;;;;;;5032860;28;20483;-77
2023/09/14 01:33:48;;;;;;;12.10;11.40;;;19.80;35.00;;;;;;5032527;28;20179;-77
2023/09/14 01:36:46;;;;;;;13.93;12.80;;;19.70;34.90;;;;;;5032480;28;20199;-77
2023/09/14 01:39:13;;;;;;;13.40;12.60;;;19.60;35.70;;;;;;5032648;28;20430;-77
2023/09/14 01:41:40;;;;;;;13.43;12.73;;;19.60;36.10;;;;;;5031960;28;20909;-77
2023/09/14 01:44:06;;;;;;;13.87;13.03;;;19.60;35.70;;;;;;5032518;28;20813;-77
2023/09/14 01:46:32;;;;;;;13.60;12.80;;;19.60;35.60;;;;;;5032161;28;20416;-77
2023/09/14 01:48:58;;;;;;;13.20;12.50;;;19.60;35.10;;;;;;5032182;28;20427;-77
2023/09/14 01:51:24;;;;;;;13.60;12.80;;;19.60;35.50;;;;;;5031790;28;20881;-77
2023/09/14 01:53:49;;;;;;;15.07;14.00;;;19.60;35.60;;;;;;5032004;28;20442;-77
2023/09/14 01:56:15;;;;;;;13.93;13.13;;;19.50;35.60;;;;;;5032045;28;20181;-77
2023/09/14 01:58:40;;;;;;;14.63;13.57;;;19.50;35.70;;;;;;5031976;28;20251;-77
2023/09/14 02:01:06;;;;;;;13.57;12.77;;;19.50;35.90;;;;;;5030502;28;20200;-77
2023/09/14 02:03:31;;;;;;;14.00;13.30;;;19.50;35.50;;;;;;5031288;28;20180;-77
2023/09/14 02:05:58;;;;;;;13.23;12.53;;;19.50;36.10;;;;;;5032524;28;20172;-77
2023/09/14 02:08:25;;;;;;;13.47;12.67;;;19.50;35.70;;;;;;5032343;28;20306;-77
2023/09/14 02:10:51;;;;;;;12.70;12.00;;;19.60;35.60;;;;;;5031489;28;20940;-77
2023/09/14 02:13:17;;;;;;;12.80;11.90;;;19.60;35.40;;;;;;5048801;28;20455;-77
2023/09/14 02:15:42;;;;;;;13.40;12.70;;;19.60;35.10;;;;;;5032791;28;20203;-77
2023/09/14 02:18:08;;;;;;;13.90;12.80;;;19.60;35.00;;;;;;5032138;28;20203;-77
2023/09/14 02:20:35;;;;;;;13.33;12.63;;;19.50;34.70;;;;;;5032119;28;20619;-77
2023/09/14 02:23:01;;;;;;;11.87;11.27;;;19.60;35.10;;;;;;5032984;28;20177;-77
2023/09/14 02:25:27;;;;;;;11.87;11.27;;;19.60;34.80;;;;;;5032849;28;20426;-77
2023/09/14 02:27:53;;;;;;;12.50;11.90;;;19.60;34.80;;;;;;5032751;28;20438;-77
2023/09/14 02:30:18;;;;;;;11.33;10.80;;;19.60;34.80;;;;;;5031729;28;20614;-77
2023/09/14 02:32:44;;;;;;;11.40;10.80;;;19.60;34.50;;;;;;5031826;28;20465;-77
2023/09/14 02:35:09;;;;;;;12.77;12.07;;;19.60;34.40;;;;;;5047460;28;20183;-77
2023/09/14 02:37:35;;;;;;;11.60;11.10;;;19.60;34.30;;;;;;5032340;28;20165;-77
2023/09/14 02:40:01;;;;;;;12.20;11.60;;;19.60;34.80;;;;;;5032897;28;20587;-77
2023/09/14 02:42:26;;;;;;;12.20;11.60;;;19.60;34.30;;;;;;5047954;28;20184;-77
2023/09/14 02:44:51;;;;;;;11.97;11.30;;;19.60;34.20;;;;;;5033132;28;20181;-77
2023/09/14 02:47:17;;;;;;;11.90;11.30;;;19.60;34.00;;;;;;5032810;28;20664;-77
2023/09/14 02:49:43;;;;;;;10.67;10.17;;;19.60;34.00;;;;;;5030774;28;20223;-77
2023/09/14 02:52:08;;;;;;;11.13;10.37;;;19.60;33.70;;;;;;5032668;28;20714;-77
2023/09/14 02:54:33;;;;;;;11.00;10.30;;;19.60;33.70;;;;;;5033570;28;20173;-77
2023/09/14 02:56:59;;;;;;;11.20;10.60;;;19.60;33.60;;;;;;5031710;28;20187;-77
2023/09/14 02:59:24;;;;;;;12.13;11.43;;;19.60;34.00;;;;;;5031504;28;20255;-77
2023/09/14 03:01:50;;;;;;;11.13;10.63;;;19.60;33.90;;;;;;5031660;28;20181;-77
2023/09/14 03:04:16;;;;;;;12.30;11.70;;;19.60;33.90;;;;;;5031696;28;20216;-77
2023/09/14 03:06:41;;;;;;;11.50;10.80;;;19.60;33.70;;;;;;5031484;28;20172;-77
2023/09/14 03:09:07;;;;;;;11.20;10.70;;;19.60;33.40;;;;;;5031645;28;20173;-77
2023/09/14 03:11:33;;;;;;;12.17;11.53;;;19.60;33.50;;;;;;5034200;28;20206;-77
2023/09/14 03:13:58;;;;;;;12.03;11.47;;;19.60;33.50;;;;;;5050208;28;20557;-77
2023/09/14 03:16:24;;;;;;;11.73;11.23;;;19.60;33.30;;;;;;5050347;28;20173;-77
2023/09/14 03:18:49;;;;;;;11.97;11.47;;;19.60;33.40;;;;;;5033675;28;20552;-77
2023/09/14 03:21:28;;;;;;;11.70;11.10;;;19.60;33.40;;;;;;5034348;28;20196;-77
2023/09/14 03:23:54;;;;;;;11.37;10.80;;;19.60;33.20;;;;;;5034705;28;20330;-76
2023/09/14 03:26:19;;;;;;;11.37;10.83;;;19.50;33.60;;;;;;5034756;28;20935;-77
2023/09/14 03:28:48;;;;;;;11.93;11.33;;;19.50;33.60;;;;;;5050185;28;20442;-76
2023/09/14 03:31:13;;;;;;;11.07;10.57;;;19.60;33.60;;;;;;5033880;28;20295;-77
2023/09/14 03:33:39;;;;;;;11.20;10.70;;;19.50;33.70;;;;;;5034545;28;20491;-78
2023/09/14 03:36:05;;;;;;;11.07;10.57;;;19.50;34.10;;;;;;5034619;28;20263;-77
2023/09/14 03:38:30;;;;;;;11.83;11.27;;;19.40;34.20;;;;;;5035646;28;20168;-77
2023/09/14 03:40:56;;;;;;;11.57;11.07;;;19.50;34.70;;;;;;5034525;28;20478;-77
2023/09/14 03:43:22;;;;;;;11.80;11.20;;;19.50;34.20;;;;;;5034799;28;20181;-77
2023/09/14 03:45:47;;;;;;;12.20;11.60;;;19.40;34.10;;;;;;5035010;28;20534;-77
2023/09/14 03:48:13;;;;;;;12.60;12.00;;;19.40;34.60;;;;;;5034864;28;20235;-77
2023/09/14 03:50:38;;;;;;;12.70;12.10;;;19.40;34.40;;;;;;5034110;28;20215;-77
2023/09/14 03:53:04;;;;;;;12.73;11.93;;;19.40;34.20;;;;;;5034351;28;20551;-76
2023/09/14 03:55:30;;;;;;;12.67;12.17;;;19.20;35.20;;;;;;5034550;28;20168;-76
2023/09/14 03:57:57;;;;;;;12.87;12.27;;;19.10;35.40;;;;;;5034338;28;20169;-76
2023/09/14 04:00:23;;;;;;;13.60;12.90;;;18.80;37.00;;;;;;5034033;28;20431;-76
2023/09/14 04:02:49;;;;;;;14.00;13.30;;;18.70;38.00;;;;;;5034169;28;20411;-76
2023/09/14 04:05:16;;;;;;;13.90;13.10;;;18.50;38.50;;;;;;5034195;28;20415;-76
2023/09/14 04:07:44;;;;;;;13.50;12.80;;;18.50;39.00;;;;;;5033602;28;20184;-76
2023/09/14 04:10:10;;;;;;;14.40;13.70;;;18.60;38.40;;;;;;5033744;28;20447;-76
2023/09/14 04:12:43;;;;;;;15.03;14.23;;;18.80;37.80;;;;;;5033604;28;20463;-77
2023/09/14 04:15:09;;;;;;;15.17;14.37;;;18.90;36.80;;;;;;5033861;28;20420;-77
2023/09/14 04:17:36;;;;;;;14.27;13.57;;;18.90;36.40;;;;;;5033860;28;20426;-76
2023/09/14 04:20:09;;;;;;;15.07;14.27;;;18.70;37.30;;;;;;5033674;28;20439;-76
2023/09/14 04:22:35;;;;;;;14.63;13.90;;;18.70;37.30;;;;;;5031834;28;20451;-76
2023/09/14 04:25:01;;;;;;;15.13;14.20;;;18.60;38.40;;;;;;5033895;28;20415;-77
2023/09/14 04:27:26;;;;;;;14.10;13.20;;;18.50;39.00;;;;;;5033466;28;20430;-77
2023/09/14 04:29:52;;;;;;;13.27;12.57;;;18.40;38.90;;;;;;5033553;28;20617;-77
2023/09/14 04:32:18;;;;;;;13.20;12.60;;;18.40;38.90;;;;;;5031949;28;20574;-76
2023/09/14 04:34:43;;;;;;;13.53;12.83;;;18.30;39.10;;;;;;5033477;28;20177;-77
2023/09/14 04:37:09;;;;;;;14.00;13.20;;;18.30;39.20;;;;;;5033792;28;20168;-77
2023/09/14 04:39:35;;;;;;;15.57;14.47;;;18.40;39.70;;;;;;5033080;28;20615;-76
2023/09/14 04:42:01;;;;;;;13.73;12.93;;;18.50;39.00;;;;;;5033153;28;20442;-77
2023/09/14 04:44:26;;;;;;;13.07;12.43;;;18.50;39.00;;;;;;5033244;28;20229;-77
2023/09/14 04:46:52;;;;;;;13.30;12.60;;;18.50;39.00;;;;;;5033166;28;20184;-77
2023/09/14 04:49:17;;;;;;;13.53;12.83;;;18.40;38.90;;;;;;5033108;28;20192;-77
2023/09/14 04:51:43;;;;;;;12.80;12.00;;;18.40;38.90;;;;;;5032551;28;20212;-77
2023/09/14 04:54:08;;;;;;;12.00;11.40;;;18.60;39.10;;;;;;5033026;28;20168;-77
2023/09/14 04:56:34;;;;;;;13.50;12.80;;;18.70;38.50;;;;;;5032986;28;20248;-77
2023/09/14 04:59:01;;;;;;;13.50;12.70;;;18.90;37.70;;;;;;5033448;28;20181;-77
2023/09/14 05:01:27;;;;;;;24.70;22.90;;;18.90;36.50;;;;;;5033133;28;20250;-76
2023/09/14 05:03:52;;;;;;;16.57;15.67;;;18.90;37.10;;;;;;5032977;28;20923;-77
2023/09/14 05:06:18;;;;;;;13.07;12.37;;;18.80;37.70;;;;;;5032823;28;20183;-77
2023/09/14 05:08:43;;;;;;;13.10;12.50;;;18.90;37.70;;;;;;5032921;28;20181;-76
2023/09/14 05:11:09;;;;;;;12.07;11.37;;;19.00;36.60;;;;;;5032858;28;20274;-77
2023/09/14 05:13:35;;;;;;;12.17;11.40;;;19.10;36.20;;;;;;5033350;28;20528;-76
2023/09/14 05:16:00;;;;;;;13.00;12.30;;;19.20;35.60;;;;;;5032893;28;20584;-76
2023/09/14 05:18:26;;;;;;;13.67;12.97;;;19.30;35.30;;;;;;5033468;28;20184;-76
2023/09/14 05:20:52;;;;;;;13.97;13.27;;;19.30;34.70;;;;;;5050396;22;20263;-79
2023/09/14 05:23:17;;;;;;;13.90;13.30;;;19.40;34.80;;;;;;5010476;28;20264;-79
2023/09/14 05:25:45;;;;;;;14.40;13.70;;;19.30;35.60;;;;;;5004568;28;20185;-79
2023/09/14 05:28:10;;;;;;;13.93;13.17;;;19.30;35.90;;;;;;5004267;28;20190;-79
2023/09/14 05:30:36;;;;;;;13.77;13.07;;;19.30;35.40;;;;;;5004066;28;20468;-78
2023/09/14 05:33:02;;;;;;;13.13;12.53;;;19.40;35.10;;;;;;5003915;28;20166;-78
2023/09/14 05:35:27;;;;;;;14.07;13.27;;;19.40;34.90;;;;;;5005289;28;20254;-78
2023/09/14 05:37:53;;;;;;;13.00;12.30;;;19.40;34.90;;;;;;5005248;28;20513;-78
2023/09/14 05:40:18;;;;;;;13.40;12.80;;;19.40;34.70;;;;;;5004277;28;20652;-79
2023/09/14 05:42:44;;;;;;;12.93;12.17;;;19.40;35.00;;;;;;5004849;28;20177;-78
2023/09/14 05:45:14;;;;;;;13.80;13.10;;;19.40;35.00;;;;;;5005014;28;20204;-79
2023/09/14 05:47:40;;;;;;;13.03;12.40;;;19.40;34.80;;;;;;5004968;28;20186;-79
2023/09/14 05:50:10;;;;;;;13.70;13.00;;;19.40;34.80;;;;;;5004344;28;20410;-77
2023/09/14 05:52:36;;;;;;;14.60;13.80;;;19.50;34.70;;;;;;5005223;28;20332;-79
2023/09/14 05:55:05;;;;;;;13.80;13.10;;;19.40;35.30;;;;;;5004278;28;20515;-79
2023/09/14 05:57:31;;;;;;;15.93;15.03;;;19.40;35.20;;;;;;5005204;28;20908;-79
2023/09/14 05:59:57;;;;;;;18.53;17.33;;;19.20;35.40;;;;;;5004737;28;20470;-79
2023/09/14 06:02:23;;;;;;;14.40;13.60;;;18.90;36.80;;;;;;5005348;28;20504;-78
2023/09/14 06:04:49;;;;;;;15.90;14.90;;;18.80;38.00;;;;;;5005279;28;20409;-79
2023/09/14 06:07:14;;;;;;;16.77;15.87;;;19.00;38.60;;;;;;5005946;28;20173;-78
2023/09/14 06:09:40;;;;;;;15.23;14.33;;;19.10;37.10;;;;;;5005641;28;20178;-79
2023/09/14 06:12:06;;;;;;;16.87;15.53;;;19.10;36.50;;;;;;5020294;28;20217;-78
2023/09/14 06:14:33;;;;;;;15.50;14.80;;;19.20;37.40;;;;;;5005469;28;20174;-79
2023/09/14 06:16:58;;;;;;;16.97;15.97;;;19.20;36.70;;;;;;5021717;28;20421;-79
2023/09/14 06:19:24;;;;;;;17.47;16.30;;;19.30;36.10;;;;;;5020147;28;20417;-79
2023/09/14 06:21:50;;;;;;;18.37;17.07;;;19.40;36.00;;;;;;5004123;28;20720;-78
2023/09/14 06:24:17;;;;;;;17.03;16.00;;;19.40;35.30;;;;;;5020779;28;20209;-78
2023/09/14 06:26:43;;;;;;;17.53;16.43;;;19.40;34.90;;;;;;5005646;28;20414;-77
2023/09/14 06:29:12;;;;;;;17.87;16.50;;;19.30;35.40;;;;;;5007489;28;20413;-77
2023/09/14 06:31:38;;;;;;;17.20;16.20;;;19.30;35.40;;;;;;5009245;28;20221;-78
2023/09/14 06:34:04;;;;;;;15.27;14.57;;;19.30;35.60;;;;;;5009662;28;20428;-78
2023/09/14 06:36:30;;;;;;;16.30;15.40;;;19.30;35.10;;;;;;5009331;28;20413;-77
2023/09/14 06:38:55;;;;;;;17.57;16.23;;;19.30;35.10;;;;;;5019634;28;20170;-78
2023/09/14 06:41:21;;;;;;;17.03;16.13;;;19.30;34.60;;;;;;5004986;28;20929;-78
2023/09/14 06:43:46;;;;;;;16.00;14.93;;;19.30;34.40;;;;;;5005370;28;20174;-78
2023/09/14 06:46:13;;;;;;;17.07;16.17;;;19.30;34.50;;;;;;5008426;28;20182;-79
2023/09/14 06:48:39;;;;;;;16.27;15.20;;;19.20;34.50;;;;;;5008116;28;20736;-78
2023/09/14 06:51:05;;;;;;;17.07;16.10;;;19.20;34.70;;;;;;5007255;28;20493;-79
2023/09/14 06:53:31;;;;;;;16.07;15.27;;;19.20;35.60;;;;;;5007433;28;20413;-79
2023/09/14 06:55:57;;;;;;;15.00;14.10;;;19.20;34.80;;;;;;5006913;28;20416;-79
2023/09/14 06:58:22;;;;;;;15.80;14.80;;;19.20;34.90;;;;;;5008308;28;20409;-79
2023/09/14 07:00:48;;;;;;;14.73;13.83;;;19.20;34.70;;;;;;5022750;28;20262;-79
2023/09/14 07:03:13;;;;;;;14.20;13.27;;;19.10;34.50;;;;;;5007053;28;20174;-78
2023/09/14 07:05:39;;;;;;;14.23;13.50;;;19.20;35.00;;;;;;5007651;28;20261;-79
2023/09/14 07:08:05;;;;;;;15.80;15.00;;;19.20;34.60;;;;;;5007621;28;20611;-79
2023/09/14 07:10:30;;;;;;;15.57;14.50;;;19.20;34.60;;;;;;5005962;28;20233;-79
2023/09/14 07:12:56;;;;;;;15.30;14.50;;;19.20;34.50;;;;;;4997104;28;20182;-79
2023/09/14 07:15:22;;;;;;;16.07;15.17;;;19.20;34.40;;;;;;5004331;28;20174;-79
2023/09/14 07:17:47;;;;;;;15.50;14.57;;;19.20;34.30;;;;;;5000258;28;20170;-78
2023/09/14 07:20:13;;;;;;;15.50;14.63;;;19.10;34.30;;;;;;4996271;28;20218;-77
2023/09/14 07:22:39;;;;;;;15.30;14.33;;;19.10;34.30;;;;;;4996183;28;20221;-78
2023/09/14 07:25:05;;;;;;;16.23;14.77;;;19.10;34.50;;;;;;4996512;28;20182;-78
2023/09/14 07:27:31;;;;;;;15.10;14.20;;;19.10;34.40;;;;;;4997420;28;20178;-78
2023/09/14 07:29:57;;;;;;;17.67;16.57;;;19.10;34.30;;;;;;4996376;28;20419;-78
2023/09/14 07:32:23;;;;;;;16.83;15.83;;;19.10;34.00;;;;;;5000218;28;20952;-77
2023/09/14 07:34:48;;;;;;;16.97;15.97;;;19.20;33.70;;;;;;5000106;28;20196;-78
2023/09/14 07:37:14;;;;;;;16.97;15.87;;;19.20;33.60;;;;;;5005341;28;20670;-78
2023/09/14 07:39:39;;;;;;;16.77;15.77;;;19.20;33.30;;;;;;5006617;28;20254;-79
2023/09/14 07:42:05;;;;;;;16.10;15.00;;;19.30;33.40;;;;;;5006304;28;20211;-79
2023/09/14 07:44:30;;;;;;;17.43;16.43;;;19.30;33.50;;;;;;4997326;28;20174;-79
2023/09/14 07:46:56;;;;;;;17.90;16.90;;;19.40;33.50;;;;;;4995948;28;20204;-79
2023/09/14 07:49:21;;;;;;;15.60;14.80;;;19.40;33.30;;;;;;4994734;28;20186;-79
2023/09/14 07:51:47;;;;;;;15.57;14.67;;;19.30;32.70;;;;;;4994899;28;20221;-78
2023/09/14 07:54:13;;;;;;;16.13;15.23;;;18.90;34.20;;;;;;4995971;28;20174;-80
2023/09/14 07:56:39;;;;;;;15.83;14.93;;;18.80;35.60;;;;;;4996305;28;20174;-78
2023/09/14 07:59:04;;;;;;;14.50;13.70;;;19.00;35.40;;;;;;4999254;28;20422;-78
2023/09/14 08:01:30;;;;;;;15.53;14.60;;;19.00;34.90;;;;;;4994887;28;20212;-79
2023/09/14 08:03:56;;;;;;;15.80;14.90;;;19.20;34.70;;;;;;4998896;28;20256;-78
2023/09/14 08:06:23;;;;;;;16.17;15.23;;;19.20;33.50;;;;;;5011208;28;20186;-78
2023/09/14 08:08:49;;;;;;;16.10;15.00;;;19.30;32.90;;;;;;4998763;28;20261;-79
2023/09/14 08:11:14;;;;;;;16.00;14.97;;;19.40;32.70;;;;;;5015905;28;20515;-78
2023/09/14 08:13:40;;;;;;;15.60;14.70;;;19.40;32.20;;;;;;4999179;28;20539;-79
2023/09/14 08:16:06;;;;;;;17.27;16.13;;;19.10;32.70;;;;;;4995478;28;20178;-77
2023/09/14 08:18:31;;;;;;;16.53;15.63;;;19.10;33.40;;;;;;4995622;28;20178;-78
2023/09/14 08:21:02;;;;;;;16.60;15.70;;;19.00;33.50;;;;;;5020248;28;20472;-78
2023/09/14 08:23:29;;;;;;;15.07;14.23;;;18.80;34.50;;;;;;5010870;28;20189;-78
2023/09/14 08:25:54;;;;;;;14.63;13.77;;;18.70;34.80;;;;;;4995240;28;20504;-77
2023/09/14 08:28:20;;;;;;;14.67;13.73;;;18.70;34.90;;;;;;5010159;28;20857;-77
2023/09/14 08:30:47;;;;;;;15.07;14.00;;;18.90;34.90;;;;;;4994286;28;20210;-78
2023/09/14 08:33:13;;;;;;;15.27;14.37;;;19.00;34.20;;;;;;4996698;28;20186;-80
2023/09/14 08:35:40;;;;;;;17.17;16.07;;;19.10;34.40;;;;;;4996987;28;20409;-79
2023/09/14 08:38:06;;;;;;;13.73;12.93;;;19.20;33.50;;;;;;4996355;28;20483;-79
2023/09/14 08:40:33;;;;;;;14.80;13.90;;;19.20;32.90;;;;;;5011764;28;20453;-78
2023/09/14 08:43:03;;;;;;;15.70;14.70;;;19.40;32.70;;;;;;4996983;28;20416;-78
2023/09/14 08:45:30;;;;;;;15.83;14.83;;;19.40;31.70;;;;;;4997981;28;20425;-80
2023/09/14 08:47:58;;;;;;;16.03;15.03;;;19.40;32.50;;;;;;4997595;28;20437;-79
2023/09/14 08:50:31;;;;;;;15.20;14.30;;;19.40;32.00;;;;;;4996071;28;20433;-78
2023/09/14 08:52:58;;;;;;;14.47;13.67;;;19.40;31.90;;;;;;4995578;28;20424;-79
2023/09/14 08:55:28;;;;;;;14.13;13.23;;;19.20;32.60;;;;;;4994983;28;20497;-77
2023/09/14 08:57:55;;;;;;;14.00;13.13;;;19.20;32.90;;;;;;4994514;28;20511;-78
2023/09/14 09:00:24;;;;;;;14.67;13.77;;;19.20;32.70;;;;;;4993265;28;20437;-79
2023/09/14 09:02:52;;;;;;;15.10;14.30;;;19.30;32.70;;;;;;4998876;28;20440;-77
2023/09/14 09:05:20;;;;;;;15.37;14.47;;;19.30;32.60;;;;;;5000777;28;20409;-77
2023/09/14 09:07:50;;;;;;;15.70;14.77;;;19.20;33.00;;;;;;5000761;28;20417;-79
2023/09/14 09:10:23;;;;;;;15.67;14.77;;;19.20;33.10;;;;;;5004717;28;20425;-79
2023/09/14 09:12:57;;;;;;;15.80;14.80;;;19.30;32.70;;;;;;4999463;28;20548;-78
2023/09/14 09:15:24;;;;;;;14.20;13.30;;;19.10;32.90;;;;;;4999149;28;20900;-77
2023/09/14 09:18:06;;;;;;;16.07;15.17;;;19.20;32.70;;;;;;4999091;28;20413;-78
2023/09/14 09:20:33;;;;;;;14.77;13.80;;;19.30;32.20;;;;;;4998138;28;20544;-79
2023/09/14 09:23:01;;;;;;;14.53;13.70;;;19.30;32.20;;;;;;4998809;28;20444;-79
2023/09/14 09:25:31;;;;;;;13.70;12.90;;;19.20;32.20;;;;;;5013777;28;20429;-78
2023/09/14 09:28:02;;;;;;;14.83;13.97;;;19.20;32.00;;;;;;5013603;28;20444;-79
2023/09/14 09:30:32;;;;;;;14.30;13.50;;;19.30;31.50;;;;;;4997932;28;20445;-78
2023/09/14 09:32:58;;;;;;;13.93;13.00;;;19.30;31.30;;;;;;4998538;28;20935;-78
2023/09/14 09:35:25;;;;;;;13.73;12.83;;;19.40;31.20;;;;;;4998684;28;20421;-78
2023/09/14 09:37:51;;;;;;;12.80;12.10;;;19.40;31.00;;;;;;4998322;28;20415;-78
2023/09/14 09:40:25;;;;;;;14.40;13.37;;;19.30;31.80;;;;;;4998800;28;20437;-77
2023/09/14 09:42:52;;;;;;;14.07;13.17;;;19.20;32.00;;;;;;4998435;28;20420;-78
2023/09/14 09:45:19;;;;;;;13.30;12.20;;;19.00;32.20;;;;;;4997953;28;20478;-79
2023/09/14 09:47:45;;;;;;;13.30;12.30;;;19.00;32.50;;;;;;4998475;28;20424;-77
2023/09/14 09:50:12;;;;;;;13.03;12.03;;;19.10;32.50;;;;;;4998680;28;20437;-78
2023/09/14 09:52:40;;;;;;;13.60;12.77;;;19.30;31.70;;;;;;5000011;28;20456;-78
2023/09/14 09:55:06;;;;;;;13.40;12.67;;;19.30;31.10;;;;;;5001426;28;20409;-78
2023/09/14 09:57:38;;;;;;;13.00;12.17;;;19.20;31.40;;;;;;5001102;28;20480;-78
2023/09/14 10:00:13;;;;;;;12.30;11.57;;;19.30;31.50;;;;;;5016524;28;20421;-78
2023/09/14 10:02:40;;;;;;;12.40;11.70;;;19.30;31.20;;;;;;5000736;28;20425;-78
2023/09/14 10:05:07;;;;;;;12.90;12.20;;;19.40;30.80;;;;;;5000131;28;20500;-77
2023/09/14 10:07:37;;;;;;;11.90;11.20;;;19.50;30.50;;;;;;5000643;28;20409;-78
2023/09/14 10:10:03;;;;;;;11.50;10.97;;;19.70;31.10;;;;;;4999414;28;20429;-78
2023/09/14 10:12:31;;;;;;;13.37;12.43;;;19.80;30.80;;;;;;5015654;28;20468;-77
2023/09/14 10:14:59;;;;;;;12.70;12.10;;;20.00;30.00;;;;;;4999934;28;20413;-78
2023/09/14 10:17:28;;;;;;;12.03;11.33;;;20.10;28.90;;;;;;5000122;28;20757;-78
2023/09/14 10:19:55;;;;;;;11.73;11.13;;;20.10;28.70;;;;;;5016985;28;20417;-77
2023/09/14 10:22:22;;;;;;;11.43;10.83;;;20.20;28.50;;;;;;5002740;28;20417;-79
2023/09/14 10:24:50;;;;;;;12.00;11.27;;;20.20;28.10;;;;;;5003563;28;20409;-79
2023/09/14 10:27:16;;;;;;;11.70;11.00;;;20.00;27.80;;;;;;5003710;28;20412;-79
2023/09/14 10:29:43;;;;;;;11.93;11.10;;;19.90;28.40;;;;;;5003548;28;20474;-79
2023/09/14 10:32:11;;;;;;;11.60;11.00;;;19.90;28.80;;;;;;5003268;28;20803;-78
2023/09/14 10:34:39;;;;;;;11.83;11.03;;;20.00;28.90;;;;;;5002833;28;20412;-78
2023/09/14 10:37:05;;;;;;;11.20;10.60;;;20.20;29.90;;;;;;5002464;28;20412;-81
2023/09/14 10:39:32;;;;;;;12.03;11.33;;;20.30;28.50;;;;;;5001543;28;20437;-77
2023/09/14 10:41:57;;;;;;;11.27;10.67;;;20.50;28.10;;;;;;5002567;28;20190;-78
2023/09/14 10:44:23;;;;;;;12.00;11.20;;;20.50;27.40;;;;;;5003291;28;20436;-78
2023/09/14 10:46:53;;;;;;;10.30;9.80;;;20.60;26.30;;;;;;5018374;28;20186;-78
2023/09/14 10:49:25;;;;;;;10.77;10.17;;;20.60;25.90;;;;;;5017876;28;20269;-79
2023/09/14 10:51:51;;;;;;;10.90;10.30;;;20.60;25.80;;;;;;5002019;28;20467;-79
2023/09/14 10:54:22;;;;;;;10.77;10.27;;;20.60;25.90;;;;;;5002837;28;20757;-78
2023/09/14 10:56:48;;;;;;;11.53;10.63;;;20.70;24.50;;;;;;5017619;28;20413;-79
2023/09/14 10:59:14;;;;;;;10.53;10.03;;;20.70;24.60;;;;;;5017211;28;20453;-78
2023/09/14 11:01:47;;;;;;;10.37;9.87;;;20.60;24.60;;;;;;5016172;28;20245;-77
2023/09/14 11:04:15;;;;;;;11.70;11.00;;;20.70;24.60;;;;;;5001613;28;20834;-77
2023/09/14 11:06:48;;;;;;;12.20;11.60;;;20.80;24.30;;;;;;5001480;28;20440;-78
2023/09/14 11:09:14;;;;;;;11.87;11.27;;;20.80;24.10;;;;;;5001151;28;20458;-79
2023/09/14 11:11:44;;;;;;;11.17;10.67;;;20.90;24.50;;;;;;5001540;28;20469;-79
2023/09/14 11:14:13;;;;;;;12.67;11.77;;;21.00;24.40;;;;;;5001123;28;20932;-79
2023/09/14 11:16:51;;;;;;;11.93;11.33;;;21.20;24.20;;;;;;5001680;28;20811;-79
2023/09/14 11:19:32;;;;;;;12.40;11.80;;;21.20;24.80;;;;;;5001058;28;20511;-79
2023/09/14 11:22:03;;;;;;;12.90;12.10;;;21.30;24.30;;;;;;5033899;23;20556;-76
2023/09/14 11:24:36;;;;;;;13.03;12.40;;;21.40;24.30;;;;;;5033396;28;20934;-75
2023/09/14 11:27:02;;;;;;;12.67;12.00;;;21.50;24.80;;;;;;5033559;28;20477;-76
2023/09/14 11:29:30;;;;;;;13.30;12.70;;;21.50;23.60;;;;;;5033670;28;20446;-75
2023/09/14 11:32:08;;;;;;;13.40;12.60;;;21.40;23.50;;;;;;5034204;28;20475;-75
2023/09/14 11:34:36;;;;;;;11.20;10.70;;;21.40;23.80;;;;;;5034885;28;20415;-76
2023/09/14 11:37:05;;;;;;;12.67;11.97;;;21.40;24.10;;;;;;5033912;28;20510;-75
2023/09/14 11:39:32;;;;;;;12.87;11.87;;;21.40;23.80;;;;;;5033699;28;20427;-75
2023/09/14 11:42:00;;;;;;;11.10;10.50;;;21.50;23.50;;;;;;5033480;28;20542;-76
2023/09/14 11:44:29;;;;;;;11.60;11.00;;;21.40;23.40;;;;;;5035371;28;20415;-75
2023/09/14 11:46:57;;;;;;;11.00;10.50;;;21.40;23.40;;;;;;5034991;28;20443;-76
2023/09/14 11:49:28;;;;;;;12.80;12.00;;;21.40;23.30;;;;;;5035484;28;20495;-76
2023/09/14 11:51:55;;;;;;;11.80;11.20;;;21.30;23.40;;;;;;5034989;28;20462;-76
2023/09/14 11:54:21;;;;;;;11.63;11.03;;;21.30;24.40;;;;;;5035374;28;20442;-75
2023/09/14 11:56:48;;;;;;;11.57;10.63;;;21.40;24.00;;;;;;5034928;28;20440;-76
2023/09/14 11:59:27;;;;;;;11.27;10.67;;;21.50;24.10;;;;;;5034797;28;20644;-76
2023/09/14 12:01:53;;;;;;;12.13;11.43;;;21.50;24.00;;;;;;5034623;28;20495;-76
2023/09/14 12:04:19;;;;;;;12.10;11.43;;;21.60;23.20;;;;;;5033219;28;20506;-76
2023/09/14 12:06:44;;;;;;;11.60;11.00;;;21.60;23.30;;;;;;5033675;28;20265;-76
2023/09/14 12:09:10;;;;;;;12.13;11.23;;;21.50;22.70;;;;;;5034716;28;20223;-76
2023/09/14 12:11:42;;;;;;;12.80;12.00;;;21.60;22.40;;;;;;5034199;28;20761;-76
2023/09/14 12:14:08;;;;;;;12.10;11.50;;;21.60;22.40;;;;;;5034594;28;20176;-76
2023/09/14 12:16:37;;;;;;;11.57;11.07;;;21.60;22.90;;;;;;5034363;28;20407;-76
2023/09/14 12:19:02;;;;;;;11.57;10.97;;;21.60;23.50;;;;;;5033026;28;20181;-76
2023/09/14 12:21:28;;;;;;;10.70;10.27;;;21.60;22.80;;;;;;5032876;28;20981;-76
2023/09/14 12:23:55;;;;;;;12.07;11.50;;;21.70;22.80;;;;;;5034684;28;20558;-76
2023/09/14 12:26:21;;;;;;;12.27;11.57;;;21.70;22.10;;;;;;5034193;28;20953;-75
2023/09/14 12:28:54;;;;;;;11.73;11.13;;;21.80;21.50;;;;;;5034109;28;20447;-76